Terminal Aerodrome Forecast
Issued by NWS

Home | Current Version | Previous Version | Text Only | Print | Product List | Glossary On
Versions: 1 2 3 4 5 6 7 8 9 10 11 12 13 14 15 16 17 18 19 20 21 22 23 24 25 26 27 28 29 30 31
000
FTUS42 KJAX 051121
TAFCRG
TAF
KCRG 051121Z 0512/0612 22004KT 6SM BR FEW010 SCT040
      TEMPO 0512/0513 2SM BR
     FM051400 21008KT P6SM SCT250
     FM051600 22014G22KT P6SM SCT040 BKN250
     FM052300 23011KT P6SM BKN040
     FM060300 28009KT P6SM VCSH BKN025
     FM060900 35012KT P6SM OVC015=

USA.gov is the U.S. government's official web portal to all federal, state and local government web resources and services.